Time;durP1;ratioP1;P1;durP2;ratioP2;P2;SDS_P1;SDS_P2;PMS_P1;PMS_P2;Temp;Humidity;BMP_temperature;BMP_pressure;BME280_temperature;BME280_humidity;BME280_pressure;Samples;Min_cycle;Max_cycle;Signal;HPM_P1;HPM_P2
2022/05/08 00:00:17;;;;;;;20.02;2.83;;;;;;;8.90;100.00;102941.06;5051838;28;20392;-29
2022/05/08 00:02:46;;;;;;;16.05;2.72;;;;;;;8.87;100.00;102941.53;5051905;28;20048;-29
2022/05/08 00:05:14;;;;;;;15.20;2.13;;;;;;;8.84;100.00;102933.66;5051307;28;20056;-34
2022/05/08 00:07:42;;;;;;;16.92;2.47;;;;;;;8.83;100.00;102936.66;5051965;28;20052;-28
2022/05/08 00:10:10;;;;;;;13.38;2.25;;;;;;;8.82;100.00;102935.81;5051899;28;20053;-29
2022/05/08 00:12:38;;;;;;;13.50;2.38;;;;;;;8.79;100.00;102933.50;5051072;28;20059;-28
2022/05/08 00:15:07;;;;;;;13.68;2.20;;;;;;;8.79;100.00;102941.03;5051728;28;20052;-28
2022/05/08 00:17:35;;;;;;;13.23;2.15;;;;;;;8.76;100.00;102939.56;5051921;28;20068;-28
2022/05/08 00:20:09;;;;;;;12.60;2.00;;;;;;;8.76;100.00;102934.00;5051175;28;20052;-28
2022/05/08 00:22:43;;;;;;;15.15;2.70;;;;;;;8.74;100.00;102933.38;5051723;28;20490;-28
2022/05/08 00:25:11;;;;;;;8.25;1.83;;;;;;;8.70;100.00;102929.38;5051674;28;20052;-28
2022/05/08 00:27:39;;;;;;;13.70;2.25;;;;;;;8.69;100.00;102930.44;5051312;28;20044;-28
2022/05/08 00:30:08;;;;;;;8.45;1.85;;;;;;;8.69;100.00;102924.03;5051787;28;20045;-28
2022/05/08 00:32:36;;;;;;;8.50;1.70;;;;;;;8.67;100.00;102927.06;5051008;28;20061;-28
2022/05/08 00:35:04;;;;;;;7.75;1.88;;;;;;;8.66;100.00;102938.41;5052155;28;20056;-32
2022/05/08 00:37:33;;;;;;;9.68;1.73;;;;;;;8.63;100.00;102923.88;5055484;28;20061;-28
2022/05/08 00:40:01;;;;;;;10.63;2.17;;;;;;;8.62;100.00;102927.75;5054554;28;20051;-30
2022/05/08 00:42:29;;;;;;;15.77;2.35;;;;;;;8.60;100.00;102923.50;5055521;28;20389;-28
2022/05/08 00:44:57;;;;;;;14.15;2.20;;;;;;;8.57;100.00;102927.63;5055387;28;20052;-28
2022/05/08 00:47:25;;;;;;;15.15;2.03;;;;;;;8.55;100.00;102931.72;5054702;28;20060;-28
2022/05/08 00:49:54;;;;;;;10.02;1.98;;;;;;;8.55;100.00;102934.50;5055225;28;20051;-28
2022/05/08 00:52:22;;;;;;;12.23;2.33;;;;;;;8.51;100.00;102928.56;5055298;28;20045;-28
2022/05/08 00:54:51;;;;;;;13.65;2.30;;;;;;;8.49;100.00;102938.22;5054329;28;20060;-28
2022/05/08 00:57:19;;;;;;;10.82;2.10;;;;;;;8.45;100.00;102932.28;5055363;28;20421;-28
2022/05/08 00:59:49;;;;;;;13.75;2.22;;;;;;;8.42;100.00;102938.31;5055238;28;20123;-28
2022/05/08 01:02:17;;;;;;;10.43;2.05;;;;;;;8.40;100.00;102931.28;5054176;28;20044;-28
2022/05/08 01:04:45;;;;;;;14.45;2.63;;;;;;;8.37;100.00;102935.41;5055042;28;20129;-28
2022/05/08 01:07:13;;;;;;;8.20;1.92;;;;;;;8.35;100.00;102931.16;5053611;28;20452;-29
2022/05/08 01:09:41;;;;;;;9.40;1.88;;;;;;;8.32;100.00;102934.34;5054170;28;20068;-28
2022/05/08 01:12:11;;;;;;;9.00;1.77;;;;;;;8.30;100.00;102934.59;5054946;28;20088;-28
2022/05/08 01:14:39;;;;;;;10.75;2.08;;;;;;;8.27;100.00;102932.28;5053964;28;20045;-29
2022/05/08 01:17:06;;;;;;;13.35;1.92;;;;;;;8.24;100.00;102930.81;5054842;28;20052;-28
2022/05/08 01:19:34;;;;;;;7.72;1.98;;;;;;;8.23;100.00;102928.25;5054477;28;20045;-28
2022/05/08 01:22:04;;;;;;;8.32;1.67;;;;;;;8.22;100.00;102929.34;5053867;28;20433;-29
2022/05/08 01:24:32;;;;;;;11.02;2.15;;;;;;;8.21;100.00;102925.69;5054350;28;20053;-28
2022/05/08 01:26:59;;;;;;;10.52;1.83;;;;;;;8.19;100.00;102929.81;5054506;28;20045;-28
2022/05/08 01:29:27;;;;;;;10.57;2.25;;;;;;;8.18;100.00;102926.19;5053731;28;20064;-28
2022/05/08 01:31:55;;;;;;;11.50;2.50;;;;;;;8.18;100.00;102928.13;5054233;28;20430;-28
2022/05/08 01:34:23;;;;;;;8.93;2.00;;;;;;;8.16;100.00;102930.28;5054345;28;20049;-29
2022/05/08 01:36:51;;;;;;;9.98;2.20;;;;;;;8.13;100.00;102931.59;5053896;28;20060;-28
2022/05/08 01:39:20;;;;;;;10.02;1.83;;;;;;;8.11;100.00;102925.41;5054689;28;20051;-28
2022/05/08 01:41:48;;;;;;;12.52;2.22;;;;;;;8.10;100.00;102922.88;5054368;28;20049;-28
2022/05/08 01:44:23;;;;;;;13.73;2.35;;;;;;;8.08;100.00;102925.03;5053433;28;20059;-28
2022/05/08 01:48:21;;;;;;;13.75;2.10;;;;;;;8.07;100.00;102929.72;5053105;28;20418;-28
2022/05/08 01:49:38;;;;;;;16.30;2.55;;;;;;;8.04;100.00;102934.91;5054255;28;20132;-29
2022/05/08 01:52:07;;;;;;;13.27;2.83;;;;;;;8.03;100.00;102936.84;5053483;28;20434;-28
2022/05/08 01:54:36;;;;;;;19.25;2.70;;;;;;;8.01;100.00;102933.44;5054214;28;20695;-29
2022/05/08 01:57:04;;;;;;;10.95;2.33;;;;;;;8.02;100.00;102931.50;5053030;28;20068;-30
2022/05/08 01:59:32;;;;;;;16.65;3.15;;;;;;;8.00;100.00;102928.09;5054095;28;20053;-30
2022/05/08 02:01:59;;;;;;;13.25;2.50;;;;;;;8.00;100.00;102930.88;5069375;28;20101;-28
2022/05/08 02:04:29;;;;;;;16.13;2.45;;;;;;;7.98;100.00;102931.13;5053169;28;20431;-28
2022/05/08 02:06:57;;;;;;;9.13;2.15;;;;;;;7.97;100.00;102937.78;5053855;28;20056;-28
2022/05/08 02:09:26;;;;;;;14.73;2.40;;;;;;;7.95;100.00;102937.16;5053768;28;20048;-28
2022/05/08 02:11:55;;;;;;;9.85;1.90;;;;;;;7.94;100.00;102936.31;5052745;28;20053;-28
2022/05/08 02:14:22;;;;;;;12.93;2.45;;;;;;;7.93;100.00;102934.59;5053713;28;20367;-30
2022/05/08 02:16:50;;;;;;;10.48;2.38;;;;;;;7.92;100.00;102932.91;5053737;28;20041;-28
2022/05/08 02:19:18;;;;;;;14.32;2.45;;;;;;;7.91;100.00;102935.91;5052895;28;20053;-28
2022/05/08 02:21:46;;;;;;;12.65;2.20;;;;;;;7.89;100.00;102941.69;5053382;28;20056;-29
2022/05/08 02:24:14;;;;;;;9.55;2.00;;;;;;;7.88;100.00;102936.38;5051961;28;20055;-28
2022/05/08 02:26:41;;;;;;;8.48;1.90;;;;;;;7.87;100.00;102938.28;5052801;28;20052;-28
2022/05/08 02:29:10;;;;;;;13.82;3.22;;;;;;;7.86;100.00;102936.59;5053380;28;20056;-28
2022/05/08 02:31:38;;;;;;;12.95;2.17;;;;;;;7.84;100.00;102940.69;5053430;28;20051;-28
2022/05/08 02:34:06;;;;;;;13.13;2.55;;;;;;;7.83;100.00;102934.28;5052485;28;20053;-30
2022/05/08 02:36:34;;;;;;;11.27;2.28;;;;;;;7.83;100.00;102933.41;5053169;28;20460;-29
2022/05/08 02:39:02;;;;;;;12.88;2.70;;;;;;;7.81;100.00;102936.44;5052243;28;20135;-29
2022/05/08 02:41:30;;;;;;;9.32;2.05;;;;;;;7.80;100.00;102937.50;5053424;28;20407;-28
2022/05/08 02:44:01;;;;;;;7.50;1.85;;;;;;;7.78;100.00;102936.91;5053196;28;20107;-29
2022/05/08 02:46:30;;;;;;;10.40;2.08;;;;;;;7.78;100.00;102945.25;5052385;28;20503;-29
2022/05/08 02:48:58;;;;;;;7.30;1.63;;;;;;;7.76;100.00;102944.63;5052924;28;20044;-29
2022/05/08 02:51:25;;;;;;;14.48;2.58;;;;;;;7.75;100.00;102942.94;5052892;28;20049;-28
2022/05/08 02:53:53;;;;;;;9.80;2.20;;;;;;;7.74;100.00;102941.22;5052188;28;20078;-28
2022/05/08 02:59:10;;;;;;;9.25;2.15;;;;;;;7.68;100.00;102947.69;5052876;28;20052;-28
2022/05/08 03:01:39;;;;;;;6.10;1.67;;;;;;;7.69;100.00;102948.53;5051833;28;20453;-27
2022/05/08 03:04:08;;;;;;;7.05;1.92;;;;;;;7.67;100.00;102947.91;5052696;28;20482;-28
2022/05/08 03:06:36;;;;;;;10.02;1.77;;;;;;;7.65;100.00;102939.81;5052736;28;20053;-29
2022/05/08 03:09:04;;;;;;;11.25;2.45;;;;;;;7.63;100.00;102949.44;5051906;28;20048;-27
2022/05/08 03:11:33;;;;;;;7.82;1.90;;;;;;;7.61;100.00;102950.53;5052571;28;20048;-27
2022/05/08 03:14:01;;;;;;;10.15;2.20;;;;;;;7.59;100.00;102949.91;5052466;28;20045;-26
2022/05/08 03:16:29;;;;;;;7.07;1.90;;;;;;;7.58;100.00;102952.94;5051499;28;20049;-27
2022/05/08 03:18:59;;;;;;;10.52;2.42;;;;;;;7.57;100.00;102954.00;5052425;28;20037;-28
2022/05/08 03:21:27;;;;;;;12.32;2.20;;;;;;;7.56;100.00;102955.09;5050505;28;20146;-28
2022/05/08 03:23:54;;;;;;;13.45;2.25;;;;;;;7.56;100.00;102957.88;5050527;28;20052;-30
2022/05/08 03:26:24;;;;;;;11.88;2.35;;;;;;;7.55;100.00;102956.16;5050288;28;20051;-28
2022/05/08 03:28:53;;;;;;;8.63;1.90;;;;;;;7.55;100.00;102958.94;5050006;28;20052;-29
2022/05/08 03:31:21;;;;;;;15.55;2.90;;;;;;;7.53;100.00;102959.16;5051101;28;20376;-28
2022/05/08 03:33:49;;;;;;;13.25;2.25;;;;;;;7.53;100.00;102961.09;5050973;28;20049;-28
2022/05/08 03:36:19;;;;;;;9.73;2.17;;;;;;;7.52;100.00;102970.50;5050095;28;20056;-28
2022/05/08 03:38:48;;;;;;;9.73;2.38;;;;;;;7.50;100.00;102965.16;5051915;28;20045;-29
2022/05/08 03:41:16;;;;;;;6.93;1.70;;;;;;;7.50;100.00;102969.88;5052125;28;20041;-28
2022/05/08 03:43:44;;;;;;;7.72;1.73;;;;;;;7.49;100.00;102973.72;5050284;28;20429;-28
2022/05/08 03:46:13;;;;;;;8.60;2.13;;;;;;;7.49;100.00;102968.19;5051775;28;20051;-29
2022/05/08 03:48:41;;;;;;;6.85;1.70;;;;;;;7.48;100.00;102970.09;5051709;28;20045;-29
2022/05/08 03:51:09;;;;;;;9.15;1.60;;;;;;;7.49;100.00;102976.50;5050786;28;20055;-28
2022/05/08 03:53:38;;;;;;;9.35;2.05;;;;;;;7.49;100.00;102973.72;5051504;28;20094;-29
2022/05/08 03:56:08;;;;;;;11.48;2.50;;;;;;;7.48;100.00;102972.03;5051583;28;20072;-28
2022/05/08 03:58:39;;;;;;;10.30;2.10;;;;;;;7.46;100.00;102972.25;5050700;28;20059;-28
2022/05/08 04:01:07;;;;;;;6.93;1.63;;;;;;;7.45;100.00;102967.78;5051746;28;20052;-28
2022/05/08 04:03:35;;;;;;;8.98;2.00;;;;;;;7.44;100.00;102968.84;5050964;28;20057;-28
2022/05/08 04:06:04;;;;;;;9.68;2.20;;;;;;;7.44;100.00;102968.00;5051563;28;20045;-28
2022/05/08 04:08:32;;;;;;;8.30;1.73;;;;;;;7.44;100.00;102962.44;5051522;28;20060;-28
2022/05/08 04:11:02;;;;;;;9.02;1.85;;;;;;;7.43;100.00;102961.59;5053156;28;20417;-28
2022/05/08 04:13:30;;;;;;;12.20;1.83;;;;;;;7.42;100.00;102962.66;5055703;28;20498;-28
2022/05/08 04:18:44;;;;;;;7.25;1.60;;;;;;;7.39;100.00;102960.38;5055074;28;20523;-30
2022/05/08 04:21:12;;;;;;;7.55;1.50;;;;;;;7.39;100.00;102960.38;5055809;28;20496;-28
2022/05/08 04:26:28;;;;;;;10.02;1.83;;;;;;;7.37;100.00;102959.75;5054840;28;20052;-28
2022/05/08 04:28:56;;;;;;;5.18;1.20;;;;;;;7.38;100.00;102968.94;5055533;28;20055;-28
2022/05/08 04:31:24;;;;;;;6.68;1.42;;;;;;;7.38;100.00;102971.69;5055929;28;20080;-29
2022/05/08 04:33:53;;;;;;;5.22;1.20;;;;;;;7.39;100.00;102977.03;5055011;28;20441;-29
2022/05/08 04:36:21;;;;;;;6.28;1.60;;;;;;;7.40;100.00;102978.72;5055286;28;20044;-28
2022/05/08 04:38:49;;;;;;;5.85;1.50;;;;;;;7.42;100.00;102961.81;5053669;28;20040;-29
2022/05/08 04:41:17;;;;;;;6.72;1.35;;;;;;;7.43;100.00;102966.28;5054404;28;20041;-28
2022/05/08 04:43:47;;;;;;;4.68;1.30;;;;;;;7.46;100.00;102975.03;5054243;28;20367;-27
2022/05/08 04:46:15;;;;;;;6.65;1.70;;;;;;;7.47;100.00;102979.50;5053510;28;20401;-29
2022/05/08 04:48:43;;;;;;;5.22;1.55;;;;;;;7.49;100.00;102979.28;5053975;28;20425;-28
2022/05/08 04:51:11;;;;;;;11.38;1.70;;;;;;;7.52;100.00;102987.16;5054185;28;20410;-28
2022/05/08 04:53:39;;;;;;;6.53;1.55;;;;;;;7.54;100.00;102980.31;5053284;28;20053;-28
2022/05/08 04:56:06;;;;;;;6.35;1.20;;;;;;;7.56;100.00;102988.44;5053967;28;20053;-28
2022/05/08 04:58:34;;;;;;;5.00;1.20;;;;;;;7.59;100.00;102985.19;5053981;28;20076;-28
2022/05/08 05:01:04;;;;;;;7.53;1.73;;;;;;;7.63;100.00;102991.97;5053277;28;20049;-28
2022/05/08 05:03:32;;;;;;;4.28;1.10;;;;;;;7.64;100.00;102985.34;5053985;28;20110;-27
2022/05/08 05:05:59;;;;;;;11.02;1.83;;;;;;;7.67;100.00;103007.13;5053951;28;20044;-28
2022/05/08 05:08:27;;;;;;;4.70;1.20;;;;;;;7.70;100.00;102990.00;5053031;28;20048;-28
2022/05/08 05:10:55;;;;;;;8.48;1.33;;;;;;;7.73;100.00;102995.09;5052346;28;20111;-28
2022/05/08 05:13:23;;;;;;;4.55;1.40;;;;;;;7.76;100.00;103008.56;5053637;28;20061;-28
2022/05/08 05:15:51;;;;;;;10.32;1.48;;;;;;;7.79;100.00;103004.47;5053249;28;20059;-28
2022/05/08 05:18:20;;;;;;;8.55;1.70;;;;;;;7.83;100.00;103000.13;5053761;28;20119;-28
2022/05/08 05:20:48;;;;;;;6.82;1.50;;;;;;;7.86;100.00;103003.31;5052832;28;20532;-28
2022/05/08 05:23:15;;;;;;;8.10;1.63;;;;;;;7.90;100.00;103015.69;5052529;28;20045;-28
2022/05/08 05:25:43;;;;;;;9.15;2.08;;;;;;;7.95;100.00;103020.56;5053163;28;20067;-28
2022/05/08 05:28:11;;;;;;;6.80;1.20;;;;;;;8.00;100.00;103020.69;5052560;28;20052;-33
2022/05/08 05:30:39;;;;;;;4.72;1.30;;;;;;;8.05;100.00;103014.44;5051661;28;20053;-28
2022/05/08 05:33:07;;;;;;;9.45;1.58;;;;;;;8.10;100.00;103012.69;5053137;28;20099;-28
2022/05/08 05:35:38;;;;;;;7.93;1.50;;;;;;;8.16;100.00;103022.06;5052564;28;20123;-28
2022/05/08 05:38:05;;;;;;;7.22;1.63;;;;;;;8.22;100.00;103021.09;5052935;28;20094;-28
2022/05/08 05:40:33;;;;;;;5.35;1.40;;;;;;;8.28;100.00;103022.97;5053250;28;20064;-28
2022/05/08 05:43:01;;;;;;;5.07;1.42;;;;;;;8.34;100.00;103022.09;5050973;28;20053;-27
2022/05/08 05:45:29;;;;;;;8.60;1.83;;;;;;;8.43;100.00;103031.81;5052982;28;20045;-28
2022/05/08 05:47:59;;;;;;;8.05;1.55;;;;;;;8.52;100.00;103036.00;5068491;28;20048;-28
2022/05/08 05:50:27;;;;;;;8.32;1.50;;;;;;;8.59;100.00;103042.31;5052234;28;20052;-28
2022/05/08 05:52:57;;;;;;;5.85;1.63;;;;;;;8.69;100.00;103035.38;5053270;28;20049;-29
2022/05/08 05:55:24;;;;;;;5.70;1.63;;;;;;;8.79;100.00;103039.28;5052959;28;20045;-28
2022/05/08 05:57:52;;;;;;;6.57;1.63;;;;;;;8.91;100.00;103044.94;5052094;28;20415;-28
2022/05/08 06:00:21;;;;;;;6.18;1.30;;;;;;;9.03;100.00;103045.81;5052604;28;20045;-28
2022/05/08 06:02:48;;;;;;;6.72;1.30;;;;;;;9.16;100.00;103048.44;5052926;28;20057;-28
2022/05/08 06:05:16;;;;;;;3.97;1.17;;;;;;;9.31;100.00;103046.06;5051826;28;20525;-29
2022/05/08 06:07:45;;;;;;;4.10;1.17;;;;;;;9.45;100.00;103054.22;5052793;28;20127;-29
2022/05/08 06:10:15;;;;;;;6.70;1.23;;;;;;;9.55;100.00;103048.91;5052081;28;20494;-29
2022/05/08 06:12:43;;;;;;;7.82;1.45;;;;;;;9.65;100.00;103050.03;5052582;28;20111;-30
2022/05/08 06:15:11;;;;;;;6.97;1.30;;;;;;;9.72;100.00;103051.84;5052589;28;20131;-29
2022/05/08 06:17:39;;;;;;;7.63;1.48;;;;;;;9.76;100.00;103051.16;5051612;28;20056;-29
2022/05/08 06:20:08;;;;;;;8.23;1.73;;;;;;;9.82;100.00;103052.94;5052561;28;20049;-28
2022/05/08 06:22:37;;;;;;;7.40;1.70;;;;;;;9.96;100.00;103056.38;5052543;28;20127;-28
2022/05/08 06:25:05;;;;;;;5.95;1.10;;;;;;;10.16;99.79;103051.28;5051364;28;20049;-31
2022/05/08 06:27:34;;;;;;;7.28;1.50;;;;;;;10.49;99.48;103049.81;5052272;28;20056;-33
2022/05/08 06:30:02;;;;;;;5.55;1.40;;;;;;;10.82;97.54;103058.34;5050207;28;20187;-28
2022/05/08 06:32:31;;;;;;;5.22;1.10;;;;;;;11.34;96.44;103059.16;5051171;28;20052;-32
2022/05/08 06:35:15;;;;;;;6.40;1.00;;;;;;;11.97;93.27;103052.47;5052891;28;20433;-32
2022/05/08 06:37:43;;;;;;;4.63;1.40;;;;;;;12.46;91.61;103063.81;5051929;28;20045;-29
2022/05/08 06:40:11;;;;;;;5.20;1.35;;;;;;;12.98;88.13;103058.66;5051269;28;20049;-29
2022/05/08 06:42:40;;;;;;;5.68;1.20;;;;;;;13.13;85.37;103059.94;5051823;28;20060;-33
2022/05/08 06:45:10;;;;;;;6.47;1.48;;;;;;;13.11;82.89;103065.78;5051921;28;20087;-26
2022/05/08 06:47:38;;;;;;;8.00;1.40;;;;;;;12.98;81.26;103063.41;5051986;28;20055;-31
2022/05/08 06:50:06;;;;;;;5.85;1.33;;;;;;;12.85;80.15;103066.59;5051808;28;20053;-30
2022/05/08 06:52:34;;;;;;;3.97;1.10;;;;;;;12.70;79.83;103070.03;5051096;28;20395;-33
2022/05/08 06:55:02;;;;;;;5.07;1.10;;;;;;;12.61;80.38;103074.38;5051786;28;20096;-29
2022/05/08 06:57:30;;;;;;;6.50;1.33;;;;;;;12.53;80.06;103070.09;5051667;28;20040;-29
2022/05/08 07:02:45;;;;;;;5.68;1.50;;;;;;;12.47;78.17;103068.31;5051585;28;20056;-29
2022/05/08 07:05:13;;;;;;;4.35;1.35;;;;;;;12.41;77.09;103077.75;5050236;28;20079;-29
2022/05/08 07:07:41;;;;;;;4.40;2.00;;;;;;;12.38;77.81;103078.28;5050582;28;20063;-28
2022/05/08 07:10:09;;;;;;;6.05;2.03;;;;;;;12.38;77.62;103079.13;5051758;28;20053;-28
2022/05/08 07:12:37;;;;;;;3.40;1.38;;;;;;;12.37;76.84;103074.63;5051527;28;20143;-31
2022/05/08 07:15:08;;;;;;;7.97;1.83;;;;;;;12.36;76.87;103077.69;5050777;28;20115;-29
2022/05/08 07:17:35;;;;;;;6.70;1.08;;;;;;;12.37;76.29;103080.22;5051562;28;20061;-29
2022/05/08 07:20:04;;;;;;;4.28;1.60;;;;;;;12.43;76.05;103075.53;5051078;28;20083;-28
2022/05/08 07:22:35;;;;;;;5.18;1.23;;;;;;;12.66;76.64;103069.69;5050812;28;20121;-28
2022/05/08 07:25:03;;;;;;;6.40;1.05;;;;;;;13.35;76.30;103074.78;5051237;28;20087;-29
2022/05/08 07:27:32;;;;;;;5.28;1.02;;;;;;;13.98;72.71;103075.97;5050229;28;20495;-29
2022/05/08 07:30:02;;;;;;;4.80;1.23;;;;;;;14.44;70.93;103074.34;5049300;28;20091;-30
2022/05/08 07:32:32;;;;;;;4.50;1.00;;;;;;;14.75;69.07;103076.22;5050917;28;20298;-28
2022/05/08 07:37:45;;;;;;;4.22;0.80;;;;;;;15.27;65.67;103083.72;5051024;28;20102;-29
2022/05/08 07:40:14;;;;;;;7.65;1.23;;;;;;;15.50;63.28;103085.19;5051170;28;20045;-33
2022/05/08 07:42:43;;;;;;;5.20;1.23;;;;;;;15.62;63.38;103090.59;5048766;28;20055;-29
2022/05/08 07:45:12;;;;;;;4.53;1.30;;;;;;;16.05;62.80;103083.56;5065446;28;20502;-29
2022/05/08 07:47:41;;;;;;;5.97;1.38;;;;;;;16.51;58.95;103093.69;5050856;28;20470;-31
2022/05/08 07:50:10;;;;;;;7.43;1.20;;;;;;;16.53;57.18;103091.41;5049968;28;20049;-28
2022/05/08 07:52:39;;;;;;;4.65;1.38;;;;;;;16.44;56.82;103089.44;5050835;28;20081;-31
2022/05/08 07:55:08;;;;;;;4.90;1.00;;;;;;;16.47;56.34;103086.06;5050817;28;20045;-29
2022/05/08 07:57:36;;;;;;;5.80;1.10;;;;;;;16.48;54.96;103084.94;5049913;28;20056;-30
2022/05/08 08:00:05;;;;;;;3.70;0.90;;;;;;;16.30;54.87;103085.53;5050698;28;20501;-32
2022/05/08 08:02:41;;;;;;;4.03;0.88;;;;;;;16.57;56.13;103088.88;5050058;28;20061;-30
2022/05/08 08:05:09;;;;;;;4.43;1.08;;;;;;;17.18;54.44;103100.81;5050756;28;20421;-32
2022/05/08 08:07:39;;;;;;;3.90;0.82;;;;;;;17.58;52.78;103105.38;5050404;28;20045;-29
2022/05/08 08:10:08;;;;;;;5.60;1.13;;;;;;;17.77;51.80;103107.56;5049854;28;20513;-30
2022/05/08 08:12:36;;;;;;;5.00;1.17;;;;;;;17.79;51.88;103108.94;5050240;28;20053;-33
2022/05/08 08:15:05;;;;;;;5.45;1.15;;;;;;;17.94;50.22;103112.78;5050514;28;20529;-30
2022/05/08 08:17:33;;;;;;;4.72;1.20;;;;;;;18.09;49.62;103115.50;5049925;28;20049;-29
2022/05/08 08:20:03;;;;;;;3.28;1.20;;;;;;;17.99;48.56;103110.75;5050586;28;20044;-33
2022/05/08 08:22:31;;;;;;;5.13;1.17;;;;;;;18.22;48.73;103110.00;5049896;28;20498;-31
2022/05/08 08:25:00;;;;;;;5.80;1.30;;;;;;;18.76;46.97;103114.59;5051055;28;20052;-29
2022/05/08 08:27:29;;;;;;;3.65;1.00;;;;;;;18.99;46.30;103103.53;5051566;28;20504;-29
2022/05/08 08:29:56;;;;;;;4.00;0.90;;;;;;;19.25;46.36;103107.75;5051647;28;20071;-29
2022/05/08 08:32:26;;;;;;;5.15;1.42;;;;;;;19.58;45.79;103115.22;5050620;28;20095;-30
2022/05/08 08:34:54;;;;;;;5.53;0.98;;;;;;;19.99;43.75;103106.09;5051522;28;20049;-30
2022/05/08 08:37:23;;;;;;;4.18;1.10;;;;;;;20.21;43.17;103111.09;5051312;28;20135;-32
2022/05/08 08:39:50;;;;;;;3.78;1.10;;;;;;;20.65;43.37;103107.78;5050798;28;20052;-30
2022/05/08 08:42:28;;;;;;;3.88;1.10;;;;;;;21.27;40.60;103113.91;5051559;28;20072;-30
2022/05/08 08:47:51;;;;;;;4.15;0.85;;;;;;;22.00;38.37;103118.47;5051353;28;20128;-31
2022/05/08 08:50:20;;;;;;;4.45;1.13;;;;;;;22.03;38.52;103112.16;5051610;28;20045;-32
2022/05/08 08:52:50;;;;;;;4.82;1.08;;;;;;;21.89;38.70;103117.88;5050423;28;20486;-30
2022/05/08 08:55:19;;;;;;;5.30;1.02;;;;;;;21.78;39.10;103107.06;5051417;28;20060;-31
2022/05/08 08:57:47;;;;;;;3.47;0.88;;;;;;;21.58;39.07;103111.25;5054542;28;20053;-28
2022/05/08 09:00:17;;;;;;;3.15;0.95;;;;;;;21.31;39.49;103118.66;5053085;28;20049;-29
2022/05/08 09:02:47;;;;;;;3.65;1.02;;;;;;;21.28;39.15;103118.44;5055194;28;20056;-30
2022/05/08 09:05:16;;;;;;;4.10;0.90;;;;;;;20.90;39.30;103114.97;5055450;28;20094;-29
2022/05/08 09:07:45;;;;;;;4.38;1.10;;;;;;;20.52;39.81;103105.78;5054170;28;20348;-30
2022/05/08 09:10:16;;;;;;;5.25;1.17;;;;;;;20.26;40.14;103109.03;5054719;28;20128;-36
2022/05/08 09:12:45;;;;;;;5.68;1.20;;;;;;;19.92;40.17;103112.16;5054942;28;20410;-34
2022/05/08 09:15:24;;;;;;;3.70;1.10;;;;;;;19.64;40.36;103118.84;5054135;28;20453;-36
2022/05/08 09:17:56;;;;;;;2.85;0.82;;;;;;;19.42;41.85;103121.38;5054794;28;20488;-35
2022/05/08 09:20:27;;;;;;;3.30;0.75;;;;;;;19.17;42.18;103125.41;5053879;28;20076;-30
2022/05/08 09:23:12;;;;;;;5.55;1.55;;;;;;;19.21;42.68;103112.31;5054658;28;20520;-38
2022/05/08 09:25:49;;;;;;;5.47;1.00;;;;;;;19.75;41.67;103113.88;5054795;28;20049;-37
2022/05/08 09:28:34;;;;;;;3.85;0.90;;;;;;;20.07;41.33;103111.06;5053779;28;20094;-33
2022/05/08 09:31:05;;;;;;;5.20;1.63;;;;;;;19.96;40.54;103118.06;5054452;28;20052;-37
2022/05/08 09:33:35;;;;;;;5.22;1.10;;;;;;;19.69;41.01;103126.41;5054480;28;20324;-37
2022/05/08 09:36:04;;;;;;;3.10;0.80;;;;;;;19.58;40.95;103120.88;5053627;28;20048;-30
2022/05/08 09:38:43;;;;;;;4.00;1.08;;;;;;;19.40;41.45;103118.00;5054351;28;20445;-32
2022/05/08 09:41:15;;;;;;;4.78;0.95;;;;;;;19.23;41.28;103119.38;5068982;28;20414;-32
2022/05/08 09:43:44;;;;;;;4.32;1.00;;;;;;;19.11;41.72;103109.63;5054417;28;20128;-30
2022/05/08 09:46:12;;;;;;;4.38;1.10;;;;;;;19.01;42.06;103124.75;5054369;28;20049;-32
2022/05/08 09:48:40;;;;;;;4.30;1.05;;;;;;;18.80;41.80;103121.31;5053319;28;20045;-36
2022/05/08 09:51:09;;;;;;;3.78;1.20;;;;;;;18.73;42.04;103125.66;5054225;28;20056;-33
2022/05/08 09:53:39;;;;;;;5.78;1.15;;;;;;;18.72;42.44;103118.31;5054172;28;20049;-30
2022/05/08 09:56:08;;;;;;;6.55;1.15;;;;;;;18.75;42.83;103120.53;5053273;28;20053;-30
2022/05/08 09:58:38;;;;;;;6.43;1.20;;;;;;;19.01;42.73;103119.09;5052810;28;20056;-34
2022/05/08 10:01:07;;;;;;;5.00;1.40;;;;;;;19.32;41.99;103127.19;5053089;28;20076;-30
2022/05/08 10:03:35;;;;;;;3.95;1.10;;;;;;;19.54;41.15;103113.34;5051699;28;20385;-30
2022/05/08 10:06:04;;;;;;;3.33;0.85;;;;;;;19.78;40.28;103118.94;5052995;28;20479;-32
2022/05/08 10:08:36;;;;;;;4.45;1.00;;;;;;;20.13;39.84;103114.66;5051514;28;20150;-34
2022/05/08 10:13:56;;;;;;;5.07;1.00;;;;;;;20.15;39.27;103112.38;5053591;28;20057;-31
2022/05/08 10:16:53;;;;;;;5.32;0.98;;;;;;;20.27;38.31;103109.88;5052859;28;20068;-30
2022/05/08 10:19:54;;;;;;;4.95;1.40;;;;;;;20.20;38.28;103107.44;5053205;28;20049;-33
2022/05/08 10:22:22;;;;;;;5.50;0.90;;;;;;;20.19;39.48;103097.25;5053411;28;20053;-29
2022/05/08 10:24:56;;;;;;;7.95;1.05;;;;;;;20.35;38.65;103105.50;5052684;28;20056;-33
2022/05/08 10:27:26;;;;;;;5.85;1.50;;;;;;;20.38;38.44;103100.09;5046566;28;20159;-30
2022/05/08 10:30:22;;;;;;;3.90;0.90;;;;;;;20.65;37.67;103099.25;5052494;28;20407;-35
2022/05/08 10:32:51;;;;;;;5.15;1.45;;;;;;;20.58;38.30;103104.53;5051938;28;20068;-30
2022/05/08 10:35:21;;;;;;;2.92;0.93;;;;;;;20.61;38.38;103104.72;5052258;28;20451;-31
2022/05/08 10:37:50;;;;;;;2.70;0.80;;;;;;;20.62;38.50;103108.41;5051299;28;20056;-33
2022/05/08 10:40:35;;;;;;;5.30;0.93;;;;;;;20.74;37.56;103099.41;5051329;28;20521;-34
2022/05/08 10:43:25;;;;;;;3.90;0.90;;;;;;;20.89;37.33;103107.59;5052088;28;20118;-35
2022/05/08 10:45:54;;;;;;;4.85;1.00;;;;;;;20.72;37.60;103105.38;5051148;28;20487;-36
2022/05/08 10:48:25;;;;;;;5.88;1.20;;;;;;;20.79;37.63;103107.78;5052552;28;20052;-33
2022/05/08 10:50:54;;;;;;;4.43;1.20;;;;;;;20.94;37.85;103101.81;5053108;28;20059;-36
2022/05/08 10:53:27;;;;;;;5.45;1.02;;;;;;;21.13;37.86;103102.53;5067408;28;20175;-36
2022/05/08 10:56:01;;;;;;;5.93;1.25;;;;;;;21.17;37.38;103109.28;5051975;28;20045;-34
2022/05/08 10:58:29;;;;;;;6.60;0.98;;;;;;;21.27;36.68;103108.22;5051952;28;20510;-32
2022/05/08 11:00:59;;;;;;;4.47;1.00;;;;;;;21.24;37.06;103114.53;5051751;28;20045;-39
2022/05/08 11:03:28;;;;;;;7.50;1.30;;;;;;;21.33;36.51;103108.97;5052863;28;20057;-33
2022/05/08 11:05:57;;;;;;;4.60;1.10;;;;;;;21.39;36.08;103105.69;5051393;28;20056;-33
2022/05/08 11:08:29;;;;;;;5.22;1.10;;;;;;;21.56;36.86;103103.03;5051722;28;20444;-33
2022/05/08 11:10:59;;;;;;;4.07;1.00;;;;;;;21.63;36.43;103103.41;5049664;28;20672;-35
2022/05/08 11:13:38;;;;;;;5.18;1.10;;;;;;;21.59;35.92;103095.84;5050647;28;20057;-30
2022/05/08 11:16:07;;;;;;;5.45;1.10;;;;;;;21.21;37.03;103100.97;5052034;28;20049;-37
2022/05/08 11:18:35;;;;;;;3.78;1.20;;;;;;;21.36;37.12;103097.81;5052171;28;20136;-36
2022/05/08 11:21:08;;;;;;;5.55;1.10;;;;;;;21.43;36.86;103097.38;5051265;28;20041;-36
2022/05/08 11:23:37;;;;;;;4.15;1.20;;;;;;;21.59;36.48;103093.84;5051766;28;20082;-37
2022/05/08 11:26:06;;;;;;;5.00;1.20;;;;;;;21.61;35.86;103088.69;5051517;28;20140;-30
2022/05/08 11:28:36;;;;;;;4.32;1.10;;;;;;;21.73;36.03;103095.81;5051321;28;20045;-31
2022/05/08 11:31:14;;;;;;;5.60;1.30;;;;;;;21.79;35.17;103095.34;5051785;28;20056;-34
2022/05/08 11:36:30;;;;;;;5.00;1.17;;;;;;;21.88;35.54;103098.28;5050974;28;20049;-30
2022/05/08 11:39:00;;;;;;;4.68;1.10;;;;;;;21.92;35.35;103093.66;5051772;28;20072;-34
2022/05/08 11:41:29;;;;;;;5.47;1.40;;;;;;;21.61;35.55;103082.16;5050991;28;20521;-34
2022/05/08 11:43:59;;;;;;;5.32;1.50;;;;;;;21.51;35.62;103088.09;5052144;28;20045;-30
2022/05/08 11:46:36;;;;;;;4.35;1.20;;;;;;;21.48;34.96;103089.56;5051646;28;20056;-30
2022/05/08 11:49:14;;;;;;;6.25;1.08;;;;;;;21.49;35.56;103087.56;5050666;28;20102;-32
2022/05/08 11:51:43;;;;;;;3.72;1.05;;;;;;;21.38;35.81;103087.00;5050913;28;20052;-30
2022/05/08 11:54:28;;;;;;;5.28;1.35;;;;;;;21.54;35.28;103074.09;5050815;28;20504;-30
2022/05/08 11:57:14;;;;;;;4.70;1.10;;;;;;;21.51;34.57;103079.56;5050944;28;20557;-30